sensor_id;sensor_type;location;lat;lon;timestamp;pressure;altitude;pressure_sealevel;temperature;humidity
55486;BME280;49383;-25.924;28.194;2023-01-19T00:02:17;85183.61;;;27.01;33.15
55486;BME280;49383;-25.924;28.194;2023-01-19T00:04:42;85188.74;;;27.00;33.16
55486;BME280;49383;-25.924;28.194;2023-01-19T00:07:08;85192.54;;;27.00;33.16
55486;BME280;49383;-25.924;28.194;2023-01-19T00:09:34;85191.34;;;26.99;33.16
55486;BME280;49383;-25.924;28.194;2023-01-19T00:12:00;85192.11;;;26.76;33.17
55486;BME280;49383;-25.924;28.194;2023-01-19T00:14:25;85197.08;;;26.98;33.17
55486;BME280;49383;-25.924;28.194;2023-01-19T00:16:51;85198.92;;;26.97;33.17
55486;BME280;49383;-25.924;28.194;2023-01-19T00:19:17;85198.60;;;26.97;33.17
55486;BME280;49383;-25.924;28.194;2023-01-19T00:21:43;85196.15;;;26.96;33.19
55486;BME280;49383;-25.924;28.194;2023-01-19T00:24:10;85194.20;;;26.95;33.19
55486;BME280;49383;-25.924;28.194;2023-01-19T00:26:34;85196.24;;;26.97;33.18
55486;BME280;49383;-25.924;28.194;2023-01-19T00:29:00;85196.67;;;26.96;33.18
55486;BME280;49383;-25.924;28.194;2023-01-19T00:31:26;85199.56;;;26.94;33.20
55486;BME280;49383;-25.924;28.194;2023-01-19T00:33:52;85201.48;;;26.95;33.20
55486;BME280;49383;-25.924;28.194;2023-01-19T00:36:18;85199.68;;;26.93;33.20
55486;BME280;49383;-25.924;28.194;2023-01-19T00:38:44;85197.23;;;26.92;33.21
55486;BME280;49383;-25.924;28.194;2023-01-19T00:41:08;85199.13;;;26.92;33.22
55486;BME280;49383;-25.924;28.194;2023-01-19T00:43:34;85202.68;;;26.92;33.21
55486;BME280;49383;-25.924;28.194;2023-01-19T00:46:00;85205.64;;;26.92;33.22
55486;BME280;49383;-25.924;28.194;2023-01-19T00:48:26;85207.13;;;26.91;33.22
55486;BME280;49383;-25.924;28.194;2023-01-19T00:50:52;85206.23;;;26.69;33.22
55486;BME280;49383;-25.924;28.194;2023-01-19T00:53:17;85203.94;;;26.92;33.22
55486;BME280;49383;-25.924;28.194;2023-01-19T00:55:43;85201.27;;;27.13;33.22
55486;BME280;49383;-25.924;28.194;2023-01-19T00:58:08;85200.35;;;26.91;33.22
55486;BME280;49383;-25.924;28.194;2023-01-19T01:00:34;85198.13;;;26.89;33.23
55486;BME280;49383;-25.924;28.194;2023-01-19T01:03:00;85194.56;;;26.89;33.24
55486;BME280;49383;-25.924;28.194;2023-01-19T01:05:26;85189.61;;;26.88;33.25
55486;BME280;49383;-25.924;28.194;2023-01-19T01:07:52;85187.82;;;26.87;33.25
55486;BME280;49383;-25.924;28.194;2023-01-19T01:10:19;85187.27;;;26.86;33.25
55486;BME280;49383;-25.924;28.194;2023-01-19T01:12:44;85188.69;;;26.87;33.26
55486;BME280;49383;-25.924;28.194;2023-01-19T01:15:11;85191.09;;;26.86;33.26
55486;BME280;49383;-25.924;28.194;2023-01-19T01:17:35;85191.83;;;26.86;33.27
55486;BME280;49383;-25.924;28.194;2023-01-19T01:20:01;85190.95;;;26.87;33.25
55486;BME280;49383;-25.924;28.194;2023-01-19T01:22:27;85189.02;;;26.87;33.25
55486;BME280;49383;-25.924;28.194;2023-01-19T01:24:52;85185.94;;;26.86;33.26
55486;BME280;49383;-25.924;28.194;2023-01-19T01:27:18;85188.11;;;26.85;33.27
55486;BME280;49383;-25.924;28.194;2023-01-19T01:29:44;85186.35;;;27.33;33.28
55486;BME280;49383;-25.924;28.194;2023-01-19T01:32:10;85189.17;;;26.83;33.29
55486;BME280;49383;-25.924;28.194;2023-01-19T01:34:35;85189.26;;;26.83;33.29
55486;BME280;49383;-25.924;28.194;2023-01-19T01:37:01;85185.86;;;26.83;33.28
55486;BME280;49383;-25.924;28.194;2023-01-19T01:39:27;85183.90;;;26.82;33.29
55486;BME280;49383;-25.924;28.194;2023-01-19T01:41:53;85181.72;;;26.82;33.29
55486;BME280;49383;-25.924;28.194;2023-01-19T01:46:45;85181.85;;;26.81;33.29
55486;BME280;49383;-25.924;28.194;2023-01-19T01:49:14;85187.34;;;26.60;33.28
55486;BME280;49383;-25.924;28.194;2023-01-19T01:51:39;85186.95;;;26.82;33.29
55486;BME280;49383;-25.924;28.194;2023-01-19T01:54:08;85186.59;;;26.81;33.29
55486;BME280;49383;-25.924;28.194;2023-01-19T01:56:31;85182.34;;;26.81;33.29
55486;BME280;49383;-25.924;28.194;2023-01-19T01:58:53;85180.09;;;26.80;33.30
55486;BME280;49383;-25.924;28.194;2023-01-19T02:01:19;85179.45;;;26.79;33.30
55486;BME280;49383;-25.924;28.194;2023-01-19T02:03:44;85179.03;;;26.77;33.32
55486;BME280;49383;-25.924;28.194;2023-01-19T02:06:12;85183.11;;;26.77;33.31
55486;BME280;49383;-25.924;28.194;2023-01-19T02:08:41;85185.27;;;26.76;33.32
55486;BME280;49383;-25.924;28.194;2023-01-19T02:11:03;85190.16;;;26.76;33.32
55486;BME280;49383;-25.924;28.194;2023-01-19T02:13:29;85192.95;;;26.77;33.31
55486;BME280;49383;-25.924;28.194;2023-01-19T02:15:55;85193.38;;;26.77;33.31
55486;BME280;49383;-25.924;28.194;2023-01-19T02:18:21;85191.30;;;26.76;33.31
55486;BME280;49383;-25.924;28.194;2023-01-19T02:20:51;85190.51;;;26.97;33.33
55486;BME280;49383;-25.924;28.194;2023-01-19T02:23:17;85189.77;;;26.74;33.34
55486;BME280;49383;-25.924;28.194;2023-01-19T02:25:37;85187.83;;;26.74;33.34
55486;BME280;49383;-25.924;28.194;2023-01-19T02:28:02;85185.59;;;26.72;33.35
55486;BME280;49383;-25.924;28.194;2023-01-19T02:30:29;85188.68;;;26.73;33.35
55486;BME280;49383;-25.924;28.194;2023-01-19T02:32:54;85189.93;;;26.77;33.30
55486;BME280;49383;-25.924;28.194;2023-01-19T02:35:20;85191.92;;;26.84;33.22
55486;BME280;49383;-25.924;28.194;2023-01-19T02:37:46;85194.05;;;26.86;33.19
55486;BME280;49383;-25.924;28.194;2023-01-19T02:40:14;85199.02;;;26.90;33.16
55486;BME280;49383;-25.924;28.194;2023-01-19T02:42:39;85198.12;;;26.83;33.21
55486;BME280;49383;-25.924;28.194;2023-01-19T02:45:05;85199.17;;;26.76;33.29
55486;BME280;49383;-25.924;28.194;2023-01-19T02:47:36;85202.27;;;27.21;33.33
55486;BME280;49383;-25.924;28.194;2023-01-19T02:49:56;85203.55;;;26.71;33.35
55486;BME280;49383;-25.924;28.194;2023-01-19T02:52:21;85205.91;;;26.69;33.36
55486;BME280;49383;-25.924;28.194;2023-01-19T02:54:56;85211.30;;;26.68;33.39
55486;BME280;49383;-25.924;28.194;2023-01-19T02:57:25;85214.61;;;26.68;33.38
55486;BME280;49383;-25.924;28.194;2023-01-19T02:59:49;85215.67;;;26.68;33.38
55486;BME280;49383;-25.924;28.194;2023-01-19T03:02:16;85216.92;;;26.68;33.38
55486;BME280;49383;-25.924;28.194;2023-01-19T03:04:39;85218.34;;;26.68;33.38
55486;BME280;49383;-25.924;28.194;2023-01-19T03:07:01;85219.49;;;26.69;33.37
55486;BME280;49383;-25.924;28.194;2023-01-19T03:09:27;85220.81;;;26.91;33.37
55486;BME280;49383;-25.924;28.194;2023-01-19T03:11:53;85218.45;;;26.67;33.38
55486;BME280;49383;-25.924;28.194;2023-01-19T03:14:15;85220.88;;;26.66;33.39
55486;BME280;49383;-25.924;28.194;2023-01-19T03:16:41;85219.81;;;26.65;33.40
55486;BME280;49383;-25.924;28.194;2023-01-19T03:19:08;85217.72;;;26.86;33.42
55486;BME280;49383;-25.924;28.194;2023-01-19T03:21:32;85217.64;;;26.63;33.43
55486;BME280;49383;-25.924;28.194;2023-01-19T03:23:59;85221.15;;;26.62;33.44
55486;BME280;49383;-25.924;28.194;2023-01-19T03:26:26;85222.99;;;26.83;33.44
55486;BME280;49383;-25.924;28.194;2023-01-19T03:28:48;85223.55;;;26.61;33.45
55486;BME280;49383;-25.924;28.194;2023-01-19T03:31:16;85226.53;;;26.60;33.45
55486;BME280;49383;-25.924;28.194;2023-01-19T03:33:42;85225.79;;;26.60;33.45
55486;BME280;49383;-25.924;28.194;2023-01-19T03:36:07;85224.37;;;26.62;33.44
55486;BME280;49383;-25.924;28.194;2023-01-19T03:38:33;85225.97;;;26.84;33.44
55486;BME280;49383;-25.924;28.194;2023-01-19T03:40:59;85227.20;;;26.61;33.45
55486;BME280;49383;-25.924;28.194;2023-01-19T03:43:23;85231.33;;;26.60;33.45
55486;BME280;49383;-25.924;28.194;2023-01-19T03:45:48;85230.87;;;26.59;33.47
55486;BME280;49383;-25.924;28.194;2023-01-19T03:48:14;85233.11;;;26.59;33.48
55486;BME280;49383;-25.924;28.194;2023-01-19T03:50:39;85236.77;;;26.80;33.48
55486;BME280;49383;-25.924;28.194;2023-01-19T03:53:07;85241.68;;;26.57;33.49
55486;BME280;49383;-25.924;28.194;2023-01-19T03:55:31;85244.03;;;26.57;33.50
55486;BME280;49383;-25.924;28.194;2023-01-19T03:57:56;85244.25;;;26.56;33.50
55486;BME280;49383;-25.924;28.194;2023-01-19T04:00:22;85245.41;;;26.79;33.50
55486;BME280;49383;-25.924;28.194;2023-01-19T04:02:48;85245.76;;;26.57;33.49
55486;BME280;49383;-25.924;28.194;2023-01-19T04:05:14;85248.01;;;26.56;33.50
55486;BME280;49383;-25.924;28.194;2023-01-19T04:07:39;85249.19;;;26.55;33.51
55486;BME280;49383;-25.924;28.194;2023-01-19T04:10:07;85253.32;;;26.56;33.51
55486;BME280;49383;-25.924;28.194;2023-01-19T04:12:31;85255.56;;;26.55;33.52
55486;BME280;49383;-25.924;28.194;2023-01-19T04:14:57;85257.59;;;26.55;33.53
55486;BME280;49383;-25.924;28.194;2023-01-19T04:17:23;85259.49;;;26.55;33.53
55486;BME280;49383;-25.924;28.194;2023-01-19T04:19:49;85262.74;;;26.55;33.53
55486;BME280;49383;-25.924;28.194;2023-01-19T04:22:16;85263.14;;;26.77;33.54
55486;BME280;49383;-25.924;28.194;2023-01-19T04:24:40;85263.02;;;26.55;33.53
55486;BME280;49383;-25.924;28.194;2023-01-19T04:27:06;85263.21;;;26.56;33.51
55486;BME280;49383;-25.924;28.194;2023-01-19T04:29:32;85262.34;;;26.58;33.50
55486;BME280;49383;-25.924;28.194;2023-01-19T04:31:58;85263.98;;;26.37;33.50
55486;BME280;49383;-25.924;28.194;2023-01-19T04:34:24;85264.18;;;26.63;33.46
55486;BME280;49383;-25.924;28.194;2023-01-19T04:36:49;85263.30;;;26.64;33.50
55486;BME280;49383;-25.924;28.194;2023-01-19T04:39:15;85259.31;;;26.65;33.49
55486;BME280;49383;-25.924;28.194;2023-01-19T04:41:41;85257.30;;;26.68;33.50
55486;BME280;49383;-25.924;28.194;2023-01-19T04:44:07;85259.28;;;26.71;33.50
55486;BME280;49383;-25.924;28.194;2023-01-19T04:46:33;85259.47;;;26.74;33.51
55486;BME280;49383;-25.924;28.194;2023-01-19T04:48:58;85258.12;;;26.76;33.51
55486;BME280;49383;-25.924;28.194;2023-01-19T04:51:24;85254.88;;;26.80;33.52
55486;BME280;49383;-25.924;28.194;2023-01-19T04:53:50;85256.04;;;26.82;33.51
55486;BME280;49383;-25.924;28.194;2023-01-19T04:56:16;85254.01;;;26.65;33.51
55486;BME280;49383;-25.924;28.194;2023-01-19T04:58:41;85254.08;;;26.90;33.49
55486;BME280;49383;-25.924;28.194;2023-01-19T05:01:08;85257.20;;;26.93;33.48
55486;BME280;49383;-25.924;28.194;2023-01-19T05:03:33;85260.08;;;26.46;33.49
55486;BME280;49383;-25.924;28.194;2023-01-19T05:05:59;85263.00;;;26.98;33.50
55486;BME280;49383;-25.924;28.194;2023-01-19T05:08:25;85259.50;;;27.01;33.47
55486;BME280;49383;-25.924;28.194;2023-01-19T05:10:50;85263.65;;;27.03;33.49
55486;BME280;49383;-25.924;28.194;2023-01-19T05:13:17;85266.00;;;27.06;33.49
55486;BME280;49383;-25.924;28.194;2023-01-19T05:15:42;85267.76;;;26.87;33.48
55486;BME280;49383;-25.924;28.194;2023-01-19T05:18:08;85267.96;;;27.13;33.47
55486;BME280;49383;-25.924;28.194;2023-01-19T05:20:34;85268.10;;;27.15;33.46
55486;BME280;49383;-25.924;28.194;2023-01-19T05:23:00;85271.59;;;27.18;33.45
55486;BME280;49383;-25.924;28.194;2023-01-19T05:25:25;85280.29;;;27.25;33.45
55486;BME280;49383;-25.924;28.194;2023-01-19T05:27:51;85284.16;;;27.28;33.42
55486;BME280;49383;-25.924;28.194;2023-01-19T05:30:17;85287.77;;;27.31;33.41
55486;BME280;49383;-25.924;28.194;2023-01-19T05:32:42;85288.85;;;27.32;33.42
55486;BME280;49383;-25.924;28.194;2023-01-19T05:35:09;85289.52;;;27.12;33.44
55486;BME280;49383;-25.924;28.194;2023-01-19T05:37:34;85290.94;;;27.37;33.44
55486;BME280;49383;-25.924;28.194;2023-01-19T05:40:00;85291.36;;;27.17;33.43
55486;BME280;49383;-25.924;28.194;2023-01-19T05:42:25;85293.02;;;27.21;33.45
55486;BME280;49383;-25.924;28.194;2023-01-19T05:44:52;85294.92;;;26.98;33.45
55486;BME280;49383;-25.924;28.194;2023-01-19T05:47:17;85292.70;;;27.28;33.41
55486;BME280;49383;-25.924;28.194;2023-01-19T05:49:43;85294.42;;;27.54;33.42
55486;BME280;49383;-25.924;28.194;2023-01-19T05:52:09;85294.79;;;27.37;33.39
55486;BME280;49383;-25.924;28.194;2023-01-19T05:54:34;85293.57;;;27.14;33.39
55486;BME280;49383;-25.924;28.194;2023-01-19T05:57:00;85292.45;;;27.17;33.39
55486;BME280;49383;-25.924;28.194;2023-01-19T05:59:26;85290.67;;;27.20;33.37
55486;BME280;49383;-25.924;28.194;2023-01-19T06:01:52;85292.39;;;27.23;33.38
55486;BME280;49383;-25.924;28.194;2023-01-19T06:04:18;85291.64;;;27.54;33.38
55486;BME280;49383;-25.924;28.194;2023-01-19T06:06:45;85294.00;;;27.31;33.38
55486;BME280;49383;-25.924;28.194;2023-01-19T06:09:09;85297.22;;;27.35;33.35
55486;BME280;49383;-25.924;28.194;2023-01-19T06:11:35;85296.00;;;27.39;33.33
55486;BME280;49383;-25.924;28.194;2023-01-19T06:14:01;85294.69;;;27.42;33.34
55486;BME280;49383;-25.924;28.194;2023-01-19T06:16:26;85292.90;;;27.45;33.35
55486;BME280;49383;-25.924;28.194;2023-01-19T06:18:52;85295.03;;;27.53;33.30
55486;BME280;49383;-25.924;28.194;2023-01-19T06:21:18;85291.42;;;27.57;33.28
55486;BME280;49383;-25.924;28.194;2023-01-19T06:23:44;85287.42;;;27.59;33.32
55486;BME280;49383;-25.924;28.194;2023-01-19T06:26:10;85284.73;;;27.61;33.32
55486;BME280;49383;-25.924;28.194;2023-01-19T06:28:35;85281.03;;;27.64;33.33
55486;BME280;49383;-25.924;28.194;2023-01-19T06:31:01;85280.83;;;27.67;33.32
55486;BME280;49383;-25.924;28.194;2023-01-19T06:33:27;85282.03;;;27.68;33.34
55486;BME280;49383;-25.924;28.194;2023-01-19T06:35:53;85282.88;;;27.50;33.34
55486;BME280;49383;-25.924;28.194;2023-01-19T06:38:18;85282.47;;;27.76;33.32
55486;BME280;49383;-25.924;28.194;2023-01-19T06:40:45;85279.32;;;27.78;33.32
55486;BME280;49383;-25.924;28.194;2023-01-19T06:43:10;85277.94;;;27.80;33.34
55486;BME280;49383;-25.924;28.194;2023-01-19T06:45:36;85274.60;;;27.63;33.33
55486;BME280;49383;-25.924;28.194;2023-01-19T06:48:01;85273.31;;;27.90;33.31
55486;BME280;49383;-25.924;28.194;2023-01-19T06:50:27;85273.40;;;27.48;33.30
55486;BME280;49383;-25.924;28.194;2023-01-19T06:52:53;85275.06;;;27.75;33.29
55486;BME280;49383;-25.924;28.194;2023-01-19T06:55:19;85276.27;;;28.01;33.28
55486;BME280;49383;-25.924;28.194;2023-01-19T06:57:44;85275.87;;;28.06;33.25
55486;BME280;49383;-25.924;28.194;2023-01-19T07:00:11;85278.68;;;28.08;33.26
55486;BME280;49383;-25.924;28.194;2023-01-19T07:02:35;85282.99;;;27.67;33.25
55486;BME280;49383;-25.924;28.194;2023-01-19T07:05:00;85285.98;;;27.93;33.25
55486;BME280;49383;-25.924;28.194;2023-01-19T07:07:26;85291.53;;;27.75;33.24
55486;BME280;49383;-25.924;28.194;2023-01-19T07:09:52;85290.13;;;28.24;33.23
55486;BME280;49383;-25.924;28.194;2023-01-19T07:12:18;85285.93;;;28.05;33.21
55486;BME280;49383;-25.924;28.194;2023-01-19T07:14:43;85286.10;;;27.87;33.19
55486;BME280;49383;-25.924;28.194;2023-01-19T07:17:09;85285.17;;;27.88;33.20
55486;BME280;49383;-25.924;28.194;2023-01-19T07:19:35;85285.24;;;28.34;33.20
55486;BME280;49383;-25.924;28.194;2023-01-19T07:22:01;85288.63;;;28.15;33.20
55486;BME280;49383;-25.924;28.194;2023-01-19T07:24:26;85288.53;;;28.16;33.20
55486;BME280;49383;-25.924;28.194;2023-01-19T07:26:52;85286.27;;;28.40;33.19
55486;BME280;49383;-25.924;28.194;2023-01-19T07:29:18;85285.64;;;28.40;33.20
55486;BME280;49383;-25.924;28.194;2023-01-19T07:31:44;85287.19;;;27.94;33.22
55486;BME280;49383;-25.924;28.194;2023-01-19T07:34:09;85288.61;;;28.15;33.23
55486;BME280;49383;-25.924;28.194;2023-01-19T07:36:35;85294.82;;;28.14;33.26
55486;BME280;49383;-25.924;28.194;2023-01-19T07:39:01;85295.52;;;28.35;33.28
55486;BME280;49383;-25.924;28.194;2023-01-19T07:41:26;85295.46;;;27.91;33.28
55486;BME280;49383;-25.924;28.194;2023-01-19T07:43:52;85297.89;;;27.90;33.29
55486;BME280;49383;-25.924;28.194;2023-01-19T07:46:18;85298.02;;;28.34;33.30
55486;BME280;49383;-25.924;28.194;2023-01-19T07:48:44;85298.61;;;27.88;33.31
55486;BME280;49383;-25.924;28.194;2023-01-19T07:51:10;85300.48;;;28.10;33.31
55486;BME280;49383;-25.924;28.194;2023-01-19T07:53:35;85300.95;;;28.29;33.34
55486;BME280;49383;-25.924;28.194;2023-01-19T07:56:01;85300.18;;;28.27;33.36
55486;BME280;49383;-25.924;28.194;2023-01-19T07:58:27;85300.69;;;28.03;33.39
55486;BME280;49383;-25.924;28.194;2023-01-19T08:00:53;85299.48;;;28.02;33.39
55486;BME280;49383;-25.924;28.194;2023-01-19T08:03:19;85303.05;;;28.23;33.40
55486;BME280;49383;-25.924;28.194;2023-01-19T08:05:44;85303.14;;;28.23;33.41
55486;BME280;49383;-25.924;28.194;2023-01-19T08:08:10;85302.53;;;28.02;33.41
55486;BME280;49383;-25.924;28.194;2023-01-19T08:10:36;85302.63;;;28.06;33.37
55486;BME280;49383;-25.924;28.194;2023-01-19T08:13:01;85303.26;;;27.86;33.36
55486;BME280;49383;-25.924;28.194;2023-01-19T08:15:27;85303.42;;;28.09;33.36
55486;BME280;49383;-25.924;28.194;2023-01-19T08:17:57;85304.11;;;27.89;33.34
55486;BME280;49383;-25.924;28.194;2023-01-19T08:20:19;85304.05;;;28.36;33.33
55486;BME280;49383;-25.924;28.194;2023-01-19T08:22:47;85301.68;;;28.36;33.31
55486;BME280;49383;-25.924;28.194;2023-01-19T08:25:10;85303.52;;;28.37;33.31
55486;BME280;49383;-25.924;28.194;2023-01-19T08:27:36;85302.75;;;28.16;33.31
55486;BME280;49383;-25.924;28.194;2023-01-19T08:30:02;85300.60;;;28.38;33.30
55486;BME280;49383;-25.924;28.194;2023-01-19T08:32:27;85301.23;;;28.14;33.31
55486;BME280;49383;-25.924;28.194;2023-01-19T08:34:53;85299.44;;;28.15;33.31
55486;BME280;49383;-25.924;28.194;2023-01-19T08:37:19;85297.58;;;28.39;33.30
55486;BME280;49383;-25.924;28.194;2023-01-19T08:39:45;85292.80;;;28.19;33.29
55486;BME280;49383;-25.924;28.194;2023-01-19T08:42:10;85290.21;;;28.21;33.27
55486;BME280;49383;-25.924;28.194;2023-01-19T08:44:36;85286.83;;;28.44;33.27
55486;BME280;49383;-25.924;28.194;2023-01-19T08:47:02;85287.56;;;28.02;33.25
55486;BME280;49383;-25.924;28.194;2023-01-19T08:49:28;85287.59;;;28.48;33.23
55486;BME280;49383;-25.924;28.194;2023-01-19T08:51:53;85286.04;;;28.26;33.23
55486;BME280;49383;-25.924;28.194;2023-01-19T08:54:19;85282.55;;;28.04;33.23
55486;BME280;49383;-25.924;28.194;2023-01-19T08:56:45;85280.88;;;28.26;33.23
55486;BME280;49383;-25.924;28.194;2023-01-19T08:59:11;85280.37;;;28.50;33.23
55486;BME280;49383;-25.924;28.194;2023-01-19T09:01:36;85278.85;;;28.50;33.22
55486;BME280;49383;-25.924;28.194;2023-01-19T09:04:02;85276.77;;;28.29;33.21
55486;BME280;49383;-25.924;28.194;2023-01-19T09:06:28;85273.19;;;28.10;33.19
55486;BME280;49383;-25.924;28.194;2023-01-19T09:08:54;85271.55;;;28.11;33.18
55486;BME280;49383;-25.924;28.194;2023-01-19T09:11:19;85267.82;;;28.12;33.17
55486;BME280;49383;-25.924;28.194;2023-01-19T09:13:45;85265.73;;;28.35;33.16
55486;BME280;49383;-25.924;28.194;2023-01-19T09:16:11;85260.42;;;28.36;33.16
55486;BME280;49383;-25.924;28.194;2023-01-19T09:18:37;85257.11;;;28.14;33.16
55486;BME280;49383;-25.924;28.194;2023-01-19T09:21:03;85254.35;;;28.38;33.15
55486;BME280;49383;-25.924;28.194;2023-01-19T09:23:28;85251.67;;;28.15;33.15
55486;BME280;49383;-25.924;28.194;2023-01-19T09:25:56;85248.16;;;28.37;33.15
55486;BME280;49383;-25.924;28.194;2023-01-19T09:28:20;85249.47;;;28.37;33.16
55486;BME280;49383;-25.924;28.194;2023-01-19T09:30:46;85248.09;;;28.37;33.17
55486;BME280;49383;-25.924;28.194;2023-01-19T09:33:13;85247.21;;;28.37;33.16
55486;BME280;49383;-25.924;28.194;2023-01-19T09:35:38;85246.83;;;28.15;33.17
55486;BME280;49383;-25.924;28.194;2023-01-19T09:38:04;85245.74;;;28.36;33.17
55486;BME280;49383;-25.924;28.194;2023-01-19T09:40:29;85241.14;;;28.13;33.19
55486;BME280;49383;-25.924;28.194;2023-01-19T09:42:56;85235.48;;;28.35;33.19
55486;BME280;49383;-25.924;28.194;2023-01-19T09:45:28;85233.96;;;28.56;33.21
55486;BME280;49383;-25.924;28.194;2023-01-19T09:47:48;85230.73;;;28.34;33.21
55486;BME280;49383;-25.924;28.194;2023-01-19T09:50:17;85225.91;;;28.12;33.20
55486;BME280;49383;-25.924;28.194;2023-01-19T09:52:41;85222.27;;;28.12;33.20
55486;BME280;49383;-25.924;28.194;2023-01-19T09:55:03;85217.25;;;28.13;33.20
55486;BME280;49383;-25.924;28.194;2023-01-19T09:57:29;85216.06;;;28.12;33.21
55486;BME280;49383;-25.924;28.194;2023-01-19T09:59:54;85213.20;;;28.12;33.21
55486;BME280;49383;-25.924;28.194;2023-01-19T10:02:29;85210.77;;;28.35;33.20
55486;BME280;49383;-25.924;28.194;2023-01-19T10:04:54;85211.49;;;28.36;33.20
55486;BME280;49383;-25.924;28.194;2023-01-19T10:07:20;85212.26;;;28.36;33.20
55486;BME280;49383;-25.924;28.194;2023-01-19T10:09:48;85203.90;;;28.14;33.20
55486;BME280;49383;-25.924;28.194;2023-01-19T10:12:10;85197.91;;;28.15;33.20
55486;BME280;49383;-25.924;28.194;2023-01-19T10:14:35;85194.20;;;28.37;33.19
55486;BME280;49383;-25.924;28.194;2023-01-19T10:17:03;85189.64;;;28.36;33.20
55486;BME280;49383;-25.924;28.194;2023-01-19T10:19:24;85190.11;;;28.59;33.20
55486;BME280;49383;-25.924;28.194;2023-01-19T10:21:47;85185.76;;;28.15;33.20
55486;BME280;49383;-25.924;28.194;2023-01-19T10:24:16;85182.24;;;28.59;33.21
55486;BME280;49383;-25.924;28.194;2023-01-19T10:26:41;85177.76;;;28.15;33.21
55486;BME280;49383;-25.924;28.194;2023-01-19T10:29:06;85172.87;;;28.18;33.18
55486;BME280;49383;-25.924;28.194;2023-01-19T10:31:32;85168.25;;;28.61;33.20
55486;BME280;49383;-25.924;28.194;2023-01-19T10:33:56;85165.72;;;28.17;33.21
55486;BME280;49383;-25.924;28.194;2023-01-19T10:36:24;85165.14;;;28.17;33.21
55486;BME280;49383;-25.924;28.194;2023-01-19T10:38:47;85161.27;;;28.61;33.21
55486;BME280;49383;-25.924;28.194;2023-01-19T10:41:18;85158.86;;;28.38;33.21
55486;BME280;49383;-25.924;28.194;2023-01-19T10:43:40;85153.21;;;28.61;33.21
55486;BME280;49383;-25.924;28.194;2023-01-19T10:46:07;85147.36;;;28.38;33.22
55486;BME280;49383;-25.924;28.194;2023-01-19T10:48:36;85142.05;;;28.37;33.23
55486;BME280;49383;-25.924;28.194;2023-01-19T10:51:00;85138.39;;;28.37;33.22
55486;BME280;49383;-25.924;28.194;2023-01-19T10:53:22;85131.34;;;28.36;33.24
55486;BME280;49383;-25.924;28.194;2023-01-19T10:55:47;85125.19;;;28.59;33.23
55486;BME280;49383;-25.924;28.194;2023-01-19T11:00:40;85118.14;;;28.13;33.26
55486;BME280;49383;-25.924;28.194;2023-01-19T11:03:19;85115.22;;;28.35;33.26
55486;BME280;49383;-25.924;28.194;2023-01-19T11:05:32;85111.71;;;28.57;33.26
55486;BME280;49383;-25.924;28.194;2023-01-19T11:07:57;85108.29;;;28.57;33.25
55486;BME280;49383;-25.924;28.194;2023-01-19T11:10:26;85100.27;;;28.35;33.26
55486;BME280;49383;-25.924;28.194;2023-01-19T11:12:59;85097.39;;;28.35;33.26
55486;BME280;49383;-25.924;28.194;2023-01-19T11:15:18;85095.03;;;28.35;33.25
55486;BME280;49383;-25.924;28.194;2023-01-19T11:17:42;85088.02;;;28.13;33.25
55486;BME280;49383;-25.924;28.194;2023-01-19T11:20:12;85079.78;;;28.57;33.25
55486;BME280;49383;-25.924;28.194;2023-01-19T11:22:32;85076.73;;;28.58;33.24
55486;BME280;49383;-25.924;28.194;2023-01-19T11:24:59;85071.24;;;28.36;33.23
55486;BME280;49383;-25.924;28.194;2023-01-19T11:27:22;85065.85;;;28.13;33.24
55486;BME280;49383;-25.924;28.194;2023-01-19T11:29:52;85065.89;;;28.12;33.27
55486;BME280;49383;-25.924;28.194;2023-01-19T11:32:20;85071.50;;;28.57;33.26
55486;BME280;49383;-25.924;28.194;2023-01-19T11:34:39;85070.81;;;28.12;33.28
55486;BME280;49383;-25.924;28.194;2023-01-19T11:39:43;85062.40;;;28.55;33.29
55486;BME280;49383;-25.924;28.194;2023-01-19T11:41:59;85055.53;;;28.56;33.28
55486;BME280;49383;-25.924;28.194;2023-01-19T11:44:26;85051.15;;;28.55;33.28
55486;BME280;49383;-25.924;28.194;2023-01-19T11:46:52;85046.98;;;28.10;33.29
55486;BME280;49383;-25.924;28.194;2023-01-19T11:49:20;85049.63;;;28.09;33.28
55486;BME280;49383;-25.924;28.194;2023-01-19T11:51:46;85045.45;;;28.11;33.27
55486;BME280;49383;-25.924;28.194;2023-01-19T11:54:14;85036.86;;;28.09;33.27
55486;BME280;49383;-25.924;28.194;2023-01-19T11:56:31;85032.76;;;28.31;33.28
55486;BME280;49383;-25.924;28.194;2023-01-19T11:58:57;85029.51;;;28.51;33.30
55486;BME280;49383;-25.924;28.194;2023-01-19T12:01:24;85038.96;;;28.49;33.32
55486;BME280;49383;-25.924;28.194;2023-01-19T12:03:55;85042.52;;;28.47;33.33
55486;BME280;49383;-25.924;28.194;2023-01-19T12:06:18;85041.04;;;28.23;33.35
55486;BME280;49383;-25.924;28.194;2023-01-19T12:08:43;85034.68;;;28.23;33.34
55486;BME280;49383;-25.924;28.194;2023-01-19T12:11:09;85035.57;;;28.21;33.35
55486;BME280;49383;-25.924;28.194;2023-01-19T12:13:32;85042.72;;;28.43;33.35
55486;BME280;49383;-25.924;28.194;2023-01-19T12:16:00;85050.16;;;28.19;33.36
55486;BME280;49383;-25.924;28.194;2023-01-19T12:18:25;85057.44;;;28.20;33.35
55486;BME280;49383;-25.924;28.194;2023-01-19T12:20:51;85055.92;;;28.40;33.37
55486;BME280;49383;-25.924;28.194;2023-01-19T12:23:23;85051.38;;;28.38;33.39
55486;BME280;49383;-25.924;28.194;2023-01-19T12:25:50;85050.47;;;28.36;33.40
55486;BME280;49383;-25.924;28.194;2023-01-19T12:28:11;85045.82;;;28.36;33.40
55486;BME280;49383;-25.924;28.194;2023-01-19T12:30:32;85040.64;;;28.34;33.42
55486;BME280;49383;-25.924;28.194;2023-01-19T12:37:49;85021.25;;;28.29;33.45
55486;BME280;49383;-25.924;28.194;2023-01-19T12:40:25;85007.82;;;28.28;33.46
55486;BME280;49383;-25.924;28.194;2023-01-19T12:42:44;85004.09;;;28.28;33.45
55486;BME280;49383;-25.924;28.194;2023-01-19T12:45:11;85002.66;;;27.84;33.44